sensor_id;sensor_type;location;lat;lon;timestamp;P1;durP1;ratioP1;P2;durP2;ratioP2
36379;SDS011;22411;53.016;18.632;2023-04-07T00:00:59;22.43;;;13.67;;
36379;SDS011;22411;53.016;18.632;2023-04-07T00:03:25;21.50;;;13.37;;
36379;SDS011;22411;53.016;18.632;2023-04-07T00:05:51;22.57;;;13.83;;
36379;SDS011;22411;53.016;18.632;2023-04-07T00:08:17;20.20;;;14.00;;
36379;SDS011;22411;53.016;18.632;2023-04-07T00:10:43;21.63;;;12.33;;
36379;SDS011;22411;53.016;18.632;2023-04-07T00:13:10;20.93;;;13.30;;
36379;SDS011;22411;53.016;18.632;2023-04-07T00:15:36;24.67;;;13.17;;
36379;SDS011;22411;53.016;18.632;2023-04-07T00:18:03;21.57;;;13.80;;
36379;SDS011;22411;53.016;18.632;2023-04-07T00:20:29;24.87;;;14.20;;
36379;SDS011;22411;53.016;18.632;2023-04-07T00:22:55;20.97;;;14.00;;
36379;SDS011;22411;53.016;18.632;2023-04-07T00:25:21;24.13;;;13.90;;
36379;SDS011;22411;53.016;18.632;2023-04-07T00:27:50;25.23;;;15.50;;
36379;SDS011;22411;53.016;18.632;2023-04-07T00:30:17;22.70;;;14.40;;
36379;SDS011;22411;53.016;18.632;2023-04-07T00:32:44;25.90;;;14.37;;
36379;SDS011;22411;53.016;18.632;2023-04-07T00:35:10;24.93;;;13.67;;
36379;SDS011;22411;53.016;18.632;2023-04-07T00:37:36;25.87;;;14.87;;
36379;SDS011;22411;53.016;18.632;2023-04-07T00:40:02;22.07;;;14.53;;
36379;SDS011;22411;53.016;18.632;2023-04-07T00:42:29;22.80;;;14.57;;
36379;SDS011;22411;53.016;18.632;2023-04-07T00:44:57;20.40;;;13.87;;
36379;SDS011;22411;53.016;18.632;2023-04-07T00:47:24;24.80;;;15.63;;
36379;SDS011;22411;53.016;18.632;2023-04-07T00:49:50;21.97;;;14.80;;
36379;SDS011;22411;53.016;18.632;2023-04-07T00:52:17;28.93;;;14.90;;
36379;SDS011;22411;53.016;18.632;2023-04-07T00:54:44;25.57;;;15.13;;
36379;SDS011;22411;53.016;18.632;2023-04-07T00:57:12;24.30;;;14.37;;
36379;SDS011;22411;53.016;18.632;2023-04-07T00:59:38;22.77;;;15.10;;
36379;SDS011;22411;53.016;18.632;2023-04-07T01:02:07;27.10;;;16.87;;
36379;SDS011;22411;53.016;18.632;2023-04-07T01:04:47;28.07;;;17.23;;
36379;SDS011;22411;53.016;18.632;2023-04-07T01:07:31;23.40;;;14.25;;
36379;SDS011;22411;53.016;18.632;2023-04-07T01:10:41;20.87;;;13.10;;
36379;SDS011;22411;53.016;18.632;2023-04-07T01:13:33;21.00;;;13.50;;
36379;SDS011;22411;53.016;18.632;2023-04-07T01:16:04;21.53;;;14.30;;
36379;SDS011;22411;53.016;18.632;2023-04-07T01:18:35;20.25;;;13.32;;
36379;SDS011;22411;53.016;18.632;2023-04-07T01:21:06;24.03;;;14.50;;
36379;SDS011;22411;53.016;18.632;2023-04-07T01:23:56;23.40;;;14.43;;
36379;SDS011;22411;53.016;18.632;2023-04-07T01:26:51;23.33;;;13.77;;
36379;SDS011;22411;53.016;18.632;2023-04-07T01:29:32;19.13;;;12.90;;
36379;SDS011;22411;53.016;18.632;2023-04-07T01:32:02;24.37;;;15.17;;
36379;SDS011;22411;53.016;18.632;2023-04-07T01:34:31;23.73;;;14.43;;
36379;SDS011;22411;53.016;18.632;2023-04-07T01:36:58;24.93;;;14.87;;
36379;SDS011;22411;53.016;18.632;2023-04-07T01:39:26;26.27;;;15.67;;
36379;SDS011;22411;53.016;18.632;2023-04-07T01:41:53;25.63;;;16.07;;
36379;SDS011;22411;53.016;18.632;2023-04-07T01:44:20;23.93;;;15.87;;
36379;SDS011;22411;53.016;18.632;2023-04-07T01:46:47;28.00;;;16.43;;
36379;SDS011;22411;53.016;18.632;2023-04-07T01:49:17;29.67;;;16.77;;
36379;SDS011;22411;53.016;18.632;2023-04-07T01:51:45;24.67;;;16.43;;
36379;SDS011;22411;53.016;18.632;2023-04-07T01:54:15;27.23;;;17.63;;
36379;SDS011;22411;53.016;18.632;2023-04-07T01:56:43;23.53;;;14.93;;
36379;SDS011;22411;53.016;18.632;2023-04-07T01:59:10;28.00;;;16.27;;
36379;SDS011;22411;53.016;18.632;2023-04-07T02:01:37;24.23;;;15.50;;
36379;SDS011;22411;53.016;18.632;2023-04-07T02:04:11;25.73;;;15.60;;
36379;SDS011;22411;53.016;18.632;2023-04-07T02:06:53;25.20;;;15.53;;
36379;SDS011;22411;53.016;18.632;2023-04-07T02:09:25;28.90;;;16.30;;
36379;SDS011;22411;53.016;18.632;2023-04-07T02:11:55;27.43;;;15.93;;
36379;SDS011;22411;53.016;18.632;2023-04-07T02:14:24;25.10;;;15.20;;
36379;SDS011;22411;53.016;18.632;2023-04-07T02:16:51;28.50;;;17.33;;
36379;SDS011;22411;53.016;18.632;2023-04-07T02:19:18;27.50;;;17.10;;
36379;SDS011;22411;53.016;18.632;2023-04-07T02:21:45;27.20;;;15.40;;
36379;SDS011;22411;53.016;18.632;2023-04-07T02:24:13;29.43;;;16.13;;
36379;SDS011;22411;53.016;18.632;2023-04-07T02:26:41;29.03;;;16.23;;
36379;SDS011;22411;53.016;18.632;2023-04-07T02:29:07;26.33;;;17.20;;
36379;SDS011;22411;53.016;18.632;2023-04-07T02:31:33;26.07;;;16.47;;
36379;SDS011;22411;53.016;18.632;2023-04-07T02:34:00;31.37;;;18.27;;
36379;SDS011;22411;53.016;18.632;2023-04-07T02:36:26;27.33;;;16.93;;
36379;SDS011;22411;53.016;18.632;2023-04-07T02:38:53;29.43;;;16.20;;
36379;SDS011;22411;53.016;18.632;2023-04-07T02:41:19;27.60;;;16.93;;
36379;SDS011;22411;53.016;18.632;2023-04-07T02:43:47;24.50;;;15.77;;
36379;SDS011;22411;53.016;18.632;2023-04-07T02:46:13;27.67;;;16.63;;
36379;SDS011;22411;53.016;18.632;2023-04-07T02:48:41;27.00;;;15.00;;
36379;SDS011;22411;53.016;18.632;2023-04-07T02:51:07;33.83;;;16.50;;
36379;SDS011;22411;53.016;18.632;2023-04-07T02:53:33;27.43;;;15.70;;
36379;SDS011;22411;53.016;18.632;2023-04-07T02:55:59;26.87;;;15.57;;
36379;SDS011;22411;53.016;18.632;2023-04-07T02:58:25;25.47;;;15.63;;
36379;SDS011;22411;53.016;18.632;2023-04-07T03:00:52;29.73;;;16.30;;
36379;SDS011;22411;53.016;18.632;2023-04-07T03:03:18;27.47;;;15.63;;
36379;SDS011;22411;53.016;18.632;2023-04-07T03:05:45;24.20;;;14.70;;
36379;SDS011;22411;53.016;18.632;2023-04-07T03:08:11;22.20;;;14.30;;
36379;SDS011;22411;53.016;18.632;2023-04-07T03:10:37;25.20;;;14.57;;
36379;SDS011;22411;53.016;18.632;2023-04-07T03:13:03;27.53;;;14.40;;
36379;SDS011;22411;53.016;18.632;2023-04-07T03:15:30;23.83;;;14.10;;
36379;SDS011;22411;53.016;18.632;2023-04-07T03:17:56;25.90;;;14.43;;
36379;SDS011;22411;53.016;18.632;2023-04-07T03:20:22;22.30;;;13.90;;
36379;SDS011;22411;53.016;18.632;2023-04-07T03:22:49;27.07;;;14.07;;
36379;SDS011;22411;53.016;18.632;2023-04-07T03:25:15;24.17;;;13.80;;
36379;SDS011;22411;53.016;18.632;2023-04-07T03:27:42;27.10;;;14.23;;
36379;SDS011;22411;53.016;18.632;2023-04-07T03:30:08;22.93;;;14.97;;
36379;SDS011;22411;53.016;18.632;2023-04-07T03:32:35;24.30;;;13.80;;
36379;SDS011;22411;53.016;18.632;2023-04-07T03:35:01;25.20;;;14.10;;
36379;SDS011;22411;53.016;18.632;2023-04-07T03:37:27;23.07;;;13.50;;
36379;SDS011;22411;53.016;18.632;2023-04-07T03:39:53;27.27;;;15.13;;
36379;SDS011;22411;53.016;18.632;2023-04-07T03:42:19;32.90;;;17.17;;
36379;SDS011;22411;53.016;18.632;2023-04-07T03:44:45;25.07;;;14.63;;
36379;SDS011;22411;53.016;18.632;2023-04-07T03:47:13;27.90;;;16.40;;
36379;SDS011;22411;53.016;18.632;2023-04-07T03:49:39;32.33;;;17.10;;
36379;SDS011;22411;53.016;18.632;2023-04-07T03:52:06;29.70;;;15.10;;
36379;SDS011;22411;53.016;18.632;2023-04-07T03:54:32;24.50;;;15.37;;
36379;SDS011;22411;53.016;18.632;2023-04-07T03:57:00;31.90;;;15.47;;
36379;SDS011;22411;53.016;18.632;2023-04-07T03:59:27;30.33;;;16.10;;
36379;SDS011;22411;53.016;18.632;2023-04-07T04:01:53;29.83;;;16.27;;
36379;SDS011;22411;53.016;18.632;2023-04-07T04:04:20;31.27;;;17.40;;
36379;SDS011;22411;53.016;18.632;2023-04-07T04:06:46;24.73;;;15.47;;
36379;SDS011;22411;53.016;18.632;2023-04-07T04:09:13;27.97;;;15.60;;
36379;SDS011;22411;53.016;18.632;2023-04-07T04:11:39;28.23;;;14.97;;
36379;SDS011;22411;53.016;18.632;2023-04-07T04:14:05;26.13;;;15.60;;
36379;SDS011;22411;53.016;18.632;2023-04-07T04:16:32;30.10;;;16.53;;
36379;SDS011;22411;53.016;18.632;2023-04-07T04:19:00;30.07;;;15.63;;
36379;SDS011;22411;53.016;18.632;2023-04-07T04:21:26;24.80;;;14.90;;
36379;SDS011;22411;53.016;18.632;2023-04-07T04:23:52;28.57;;;15.37;;
36379;SDS011;22411;53.016;18.632;2023-04-07T04:26:18;29.87;;;16.00;;
36379;SDS011;22411;53.016;18.632;2023-04-07T04:28:45;21.53;;;13.27;;
36379;SDS011;22411;53.016;18.632;2023-04-07T04:31:11;22.40;;;14.27;;
36379;SDS011;22411;53.016;18.632;2023-04-07T04:33:37;24.17;;;13.27;;
36379;SDS011;22411;53.016;18.632;2023-04-07T04:36:03;23.70;;;14.07;;
36379;SDS011;22411;53.016;18.632;2023-04-07T04:38:30;22.37;;;13.73;;
36379;SDS011;22411;53.016;18.632;2023-04-07T04:40:58;23.00;;;13.00;;
36379;SDS011;22411;53.016;18.632;2023-04-07T04:43:27;18.97;;;11.97;;
36379;SDS011;22411;53.016;18.632;2023-04-07T04:45:55;18.87;;;11.40;;
36379;SDS011;22411;53.016;18.632;2023-04-07T04:48:21;21.73;;;12.13;;
36379;SDS011;22411;53.016;18.632;2023-04-07T04:50:47;21.20;;;11.80;;
36379;SDS011;22411;53.016;18.632;2023-04-07T04:53:14;20.07;;;11.73;;
36379;SDS011;22411;53.016;18.632;2023-04-07T04:55:41;22.20;;;11.60;;
36379;SDS011;22411;53.016;18.632;2023-04-07T04:58:12;24.85;;;12.85;;
36379;SDS011;22411;53.016;18.632;2023-04-07T05:00:38;23.00;;;12.40;;
36379;SDS011;22411;53.016;18.632;2023-04-07T05:03:04;20.47;;;11.70;;
36379;SDS011;22411;53.016;18.632;2023-04-07T05:05:31;20.53;;;11.67;;
36379;SDS011;22411;53.016;18.632;2023-04-07T05:07:57;19.10;;;11.50;;
36379;SDS011;22411;53.016;18.632;2023-04-07T05:10:24;22.33;;;11.63;;
36379;SDS011;22411;53.016;18.632;2023-04-07T05:12:50;21.90;;;11.70;;
36379;SDS011;22411;53.016;18.632;2023-04-07T05:15:16;25.73;;;13.60;;
36379;SDS011;22411;53.016;18.632;2023-04-07T05:17:43;22.27;;;12.43;;
36379;SDS011;22411;53.016;18.632;2023-04-07T05:20:15;22.43;;;12.53;;
36379;SDS011;22411;53.016;18.632;2023-04-07T05:22:42;24.20;;;12.83;;
36379;SDS011;22411;53.016;18.632;2023-04-07T05:25:11;23.30;;;13.90;;
36379;SDS011;22411;53.016;18.632;2023-04-07T05:27:37;25.40;;;13.00;;
36379;SDS011;22411;53.016;18.632;2023-04-07T05:30:04;19.20;;;12.00;;
36379;SDS011;22411;53.016;18.632;2023-04-07T05:32:31;23.17;;;12.10;;
36379;SDS011;22411;53.016;18.632;2023-04-07T05:34:57;23.60;;;12.83;;
36379;SDS011;22411;53.016;18.632;2023-04-07T05:37:23;25.27;;;14.27;;
36379;SDS011;22411;53.016;18.632;2023-04-07T05:39:50;27.10;;;15.57;;
36379;SDS011;22411;53.016;18.632;2023-04-07T05:42:16;24.57;;;14.03;;
36379;SDS011;22411;53.016;18.632;2023-04-07T05:44:42;24.30;;;15.40;;
36379;SDS011;22411;53.016;18.632;2023-04-07T05:47:07;21.47;;;14.00;;
36379;SDS011;22411;53.016;18.632;2023-04-07T05:49:34;22.40;;;13.20;;
36379;SDS011;22411;53.016;18.632;2023-04-07T05:52:00;20.27;;;12.50;;
36379;SDS011;22411;53.016;18.632;2023-04-07T05:54:28;23.60;;;15.23;;
36379;SDS011;22411;53.016;18.632;2023-04-07T05:56:55;22.87;;;14.20;;
36379;SDS011;22411;53.016;18.632;2023-04-07T05:59:21;21.33;;;14.20;;
36379;SDS011;22411;53.016;18.632;2023-04-07T06:01:48;23.53;;;14.17;;
36379;SDS011;22411;53.016;18.632;2023-04-07T06:04:15;26.07;;;15.47;;
36379;SDS011;22411;53.016;18.632;2023-04-07T06:06:41;22.53;;;13.93;;
36379;SDS011;22411;53.016;18.632;2023-04-07T06:09:07;22.63;;;14.17;;
36379;SDS011;22411;53.016;18.632;2023-04-07T06:11:33;29.43;;;16.83;;
36379;SDS011;22411;53.016;18.632;2023-04-07T06:13:59;25.60;;;15.30;;
36379;SDS011;22411;53.016;18.632;2023-04-07T06:16:25;24.23;;;15.23;;
36379;SDS011;22411;53.016;18.632;2023-04-07T06:18:52;26.37;;;15.03;;
36379;SDS011;22411;53.016;18.632;2023-04-07T06:21:18;29.03;;;19.30;;
36379;SDS011;22411;53.016;18.632;2023-04-07T06:23:44;54.23;;;37.07;;
36379;SDS011;22411;53.016;18.632;2023-04-07T06:26:10;45.93;;;28.47;;
36379;SDS011;22411;53.016;18.632;2023-04-07T06:28:37;27.27;;;17.30;;
36379;SDS011;22411;53.016;18.632;2023-04-07T06:31:04;33.03;;;19.10;;
36379;SDS011;22411;53.016;18.632;2023-04-07T06:33:31;35.40;;;19.40;;
36379;SDS011;22411;53.016;18.632;2023-04-07T06:35:59;35.20;;;19.90;;
36379;SDS011;22411;53.016;18.632;2023-04-07T06:38:26;34.40;;;18.97;;
36379;SDS011;22411;53.016;18.632;2023-04-07T06:40:51;32.03;;;19.03;;
36379;SDS011;22411;53.016;18.632;2023-04-07T06:43:18;37.07;;;19.67;;
36379;SDS011;22411;53.016;18.632;2023-04-07T06:45:43;30.30;;;17.77;;
36379;SDS011;22411;53.016;18.632;2023-04-07T06:48:10;37.33;;;24.20;;
36379;SDS011;22411;53.016;18.632;2023-04-07T06:50:36;37.43;;;26.23;;
36379;SDS011;22411;53.016;18.632;2023-04-07T06:53:05;29.03;;;19.30;;
36379;SDS011;22411;53.016;18.632;2023-04-07T06:55:32;35.10;;;19.70;;
36379;SDS011;22411;53.016;18.632;2023-04-07T06:57:58;30.00;;;17.73;;
36379;SDS011;22411;53.016;18.632;2023-04-07T07:00:24;26.47;;;16.03;;
36379;SDS011;22411;53.016;18.632;2023-04-07T07:02:51;24.10;;;15.70;;
36379;SDS011;22411;53.016;18.632;2023-04-07T07:05:17;25.10;;;14.60;;
36379;SDS011;22411;53.016;18.632;2023-04-07T07:07:43;28.53;;;16.43;;
36379;SDS011;22411;53.016;18.632;2023-04-07T07:10:09;25.43;;;17.07;;
36379;SDS011;22411;53.016;18.632;2023-04-07T07:12:36;26.33;;;16.50;;
36379;SDS011;22411;53.016;18.632;2023-04-07T07:15:02;24.77;;;16.70;;
36379;SDS011;22411;53.016;18.632;2023-04-07T07:17:29;25.40;;;15.23;;
36379;SDS011;22411;53.016;18.632;2023-04-07T07:19:55;42.00;;;33.70;;
36379;SDS011;22411;53.016;18.632;2023-04-07T07:22:21;34.93;;;24.40;;
36379;SDS011;22411;53.016;18.632;2023-04-07T07:24:47;19.80;;;13.90;;
36379;SDS011;22411;53.016;18.632;2023-04-07T07:27:13;19.73;;;13.02;;
36379;SDS011;22411;53.016;18.632;2023-04-07T07:29:40;25.53;;;16.77;;
36379;SDS011;22411;53.016;18.632;2023-04-07T07:32:07;43.38;;;22.58;;
36379;SDS011;22411;53.016;18.632;2023-04-07T07:34:37;27.15;;;15.77;;
36379;SDS011;22411;53.016;18.632;2023-04-07T07:37:03;23.58;;;17.27;;
36379;SDS011;22411;53.016;18.632;2023-04-07T07:39:30;33.10;;;24.07;;
36379;SDS011;22411;53.016;18.632;2023-04-07T07:41:57;32.30;;;21.42;;
36379;SDS011;22411;53.016;18.632;2023-04-07T07:44:23;23.13;;;16.05;;
36379;SDS011;22411;53.016;18.632;2023-04-07T07:46:49;19.10;;;12.52;;
36379;SDS011;22411;53.016;18.632;2023-04-07T07:49:15;27.85;;;16.27;;
36379;SDS011;22411;53.016;18.632;2023-04-07T07:51:42;23.13;;;14.32;;
36379;SDS011;22411;53.016;18.632;2023-04-07T07:54:07;20.95;;;14.02;;
36379;SDS011;22411;53.016;18.632;2023-04-07T07:56:36;21.95;;;14.73;;
36379;SDS011;22411;53.016;18.632;2023-04-07T07:59:03;18.08;;;12.65;;
36379;SDS011;22411;53.016;18.632;2023-04-07T08:01:31;15.20;;;11.82;;
36379;SDS011;22411;53.016;18.632;2023-04-07T08:03:57;15.00;;;10.95;;
36379;SDS011;22411;53.016;18.632;2023-04-07T08:06:25;13.07;;;9.98;;
36379;SDS011;22411;53.016;18.632;2023-04-07T08:08:53;20.45;;;15.73;;
36379;SDS011;22411;53.016;18.632;2023-04-07T08:11:19;15.65;;;10.27;;
36379;SDS011;22411;53.016;18.632;2023-04-07T08:13:45;17.40;;;11.18;;
36379;SDS011;22411;53.016;18.632;2023-04-07T08:16:12;18.98;;;14.63;;
36379;SDS011;22411;53.016;18.632;2023-04-07T08:18:37;16.73;;;11.82;;
36379;SDS011;22411;53.016;18.632;2023-04-07T08:21:05;17.08;;;12.05;;
36379;SDS011;22411;53.016;18.632;2023-04-07T08:23:31;20.38;;;15.98;;
36379;SDS011;22411;53.016;18.632;2023-04-07T08:25:57;15.38;;;9.88;;
36379;SDS011;22411;53.016;18.632;2023-04-07T08:28:24;31.85;;;22.63;;
36379;SDS011;22411;53.016;18.632;2023-04-07T08:30:51;21.00;;;14.48;;
36379;SDS011;22411;53.016;18.632;2023-04-07T08:33:17;23.15;;;17.77;;
36379;SDS011;22411;53.016;18.632;2023-04-07T08:35:43;20.85;;;14.60;;
36379;SDS011;22411;53.016;18.632;2023-04-07T08:38:09;14.00;;;11.63;;
36379;SDS011;22411;53.016;18.632;2023-04-07T08:40:36;15.88;;;12.75;;
36379;SDS011;22411;53.016;18.632;2023-04-07T08:43:04;17.35;;;14.60;;
36379;SDS011;22411;53.016;18.632;2023-04-07T08:45:37;20.92;;;15.65;;
36379;SDS011;22411;53.016;18.632;2023-04-07T08:48:08;16.75;;;13.07;;
36379;SDS011;22411;53.016;18.632;2023-04-07T08:50:45;35.75;;;29.17;;
36379;SDS011;22411;53.016;18.632;2023-04-07T08:53:17;18.65;;;14.43;;
36379;SDS011;22411;53.016;18.632;2023-04-07T08:55:50;20.58;;;13.77;;
36379;SDS011;22411;53.016;18.632;2023-04-07T08:58:16;20.60;;;14.77;;
36379;SDS011;22411;53.016;18.632;2023-04-07T09:00:43;18.48;;;13.40;;
36379;SDS011;22411;53.016;18.632;2023-04-07T09:03:10;13.27;;;10.40;;
36379;SDS011;22411;53.016;18.632;2023-04-07T09:05:37;23.40;;;17.88;;
36379;SDS011;22411;53.016;18.632;2023-04-07T09:08:03;296.88;;;169.50;;
36379;SDS011;22411;53.016;18.632;2023-04-07T09:10:29;227.27;;;126.85;;
36379;SDS011;22411;53.016;18.632;2023-04-07T09:12:57;255.15;;;134.25;;
36379;SDS011;22411;53.016;18.632;2023-04-07T09:15:24;401.77;;;220.68;;
36379;SDS011;22411;53.016;18.632;2023-04-07T09:17:55;264.50;;;144.00;;
36379;SDS011;22411;53.016;18.632;2023-04-07T09:20:22;115.95;;;61.72;;
36379;SDS011;22411;53.016;18.632;2023-04-07T09:22:48;223.88;;;114.53;;
36379;SDS011;22411;53.016;18.632;2023-04-07T09:27:54;156.93;;;84.70;;
36379;SDS011;22411;53.016;18.632;2023-04-07T09:30:21;101.97;;;59.70;;
36379;SDS011;22411;53.016;18.632;2023-04-07T09:32:47;58.13;;;42.63;;
36379;SDS011;22411;53.016;18.632;2023-04-07T09:35:13;22.05;;;16.17;;
36379;SDS011;22411;53.016;18.632;2023-04-07T09:37:40;21.38;;;14.63;;
36379;SDS011;22411;53.016;18.632;2023-04-07T09:40:07;19.67;;;14.50;;
36379;SDS011;22411;53.016;18.632;2023-04-07T09:42:34;15.65;;;12.40;;
36379;SDS011;22411;53.016;18.632;2023-04-07T09:45:02;18.50;;;14.45;;
36379;SDS011;22411;53.016;18.632;2023-04-07T09:47:30;150.02;;;89.68;;
36379;SDS011;22411;53.016;18.632;2023-04-07T09:49:57;21.80;;;15.52;;
36379;SDS011;22411;53.016;18.632;2023-04-07T09:52:25;18.00;;;13.85;;
36379;SDS011;22411;53.016;18.632;2023-04-07T09:55:14;23.88;;;18.25;;
36379;SDS011;22411;53.016;18.632;2023-04-07T09:57:40;17.30;;;12.90;;
36379;SDS011;22411;53.016;18.632;2023-04-07T10:00:09;17.45;;;12.35;;
36379;SDS011;22411;53.016;18.632;2023-04-07T10:02:35;17.00;;;12.38;;
36379;SDS011;22411;53.016;18.632;2023-04-07T10:05:03;17.92;;;12.70;;
36379;SDS011;22411;53.016;18.632;2023-04-07T10:07:29;17.63;;;13.02;;
36379;SDS011;22411;53.016;18.632;2023-04-07T10:09:56;20.13;;;12.75;;
36379;SDS011;22411;53.016;18.632;2023-04-07T10:12:22;20.27;;;14.40;;
36379;SDS011;22411;53.016;18.632;2023-04-07T10:14:49;19.95;;;12.32;;
36379;SDS011;22411;53.016;18.632;2023-04-07T10:17:16;21.98;;;14.68;;
36379;SDS011;22411;53.016;18.632;2023-04-07T10:19:45;15.13;;;12.60;;
36379;SDS011;22411;53.016;18.632;2023-04-07T10:22:13;19.00;;;13.10;;
36379;SDS011;22411;53.016;18.632;2023-04-07T10:25:01;24.80;;;16.63;;
36379;SDS011;22411;53.016;18.632;2023-04-07T10:27:40;20.88;;;17.08;;
36379;SDS011;22411;53.016;18.632;2023-04-07T10:30:22;22.55;;;17.83;;
36379;SDS011;22411;53.016;18.632;2023-04-07T10:32:51;22.40;;;17.05;;
36379;SDS011;22411;53.016;18.632;2023-04-07T10:35:19;19.17;;;14.95;;
36379;SDS011;22411;53.016;18.632;2023-04-07T10:40:31;19.98;;;14.57;;
36379;SDS011;22411;53.016;18.632;2023-04-07T10:42:58;16.83;;;11.68;;
36379;SDS011;22411;53.016;18.632;2023-04-07T10:46:09;18.55;;;12.88;;
36379;SDS011;22411;53.016;18.632;2023-04-07T10:48:11;18.00;;;12.68;;
36379;SDS011;22411;53.016;18.632;2023-04-07T10:50:38;16.60;;;12.98;;
36379;SDS011;22411;53.016;18.632;2023-04-07T10:53:08;77.28;;;47.90;;
36379;SDS011;22411;53.016;18.632;2023-04-07T10:55:36;37.80;;;25.80;;
36379;SDS011;22411;53.016;18.632;2023-04-07T10:58:13;28.95;;;21.08;;
36379;SDS011;22411;53.016;18.632;2023-04-07T11:00:41;74.35;;;45.67;;
36379;SDS011;22411;53.016;18.632;2023-04-07T11:03:13;34.17;;;25.02;;
36379;SDS011;22411;53.016;18.632;2023-04-07T11:05:40;35.97;;;27.05;;
36379;SDS011;22411;53.016;18.632;2023-04-07T11:08:07;36.70;;;23.55;;
36379;SDS011;22411;53.016;18.632;2023-04-07T11:10:34;38.20;;;25.92;;
36379;SDS011;22411;53.016;18.632;2023-04-07T11:13:02;45.17;;;29.02;;
36379;SDS011;22411;53.016;18.632;2023-04-07T11:15:35;43.70;;;29.42;;
36379;SDS011;22411;53.016;18.632;2023-04-07T11:18:09;35.22;;;25.45;;
36379;SDS011;22411;53.016;18.632;2023-04-07T11:20:42;31.80;;;22.40;;
36379;SDS011;22411;53.016;18.632;2023-04-07T11:23:22;32.15;;;22.85;;
36379;SDS011;22411;53.016;18.632;2023-04-07T11:25:51;32.58;;;21.20;;
36379;SDS011;22411;53.016;18.632;2023-04-07T11:28:18;55.97;;;41.28;;
36379;SDS011;22411;53.016;18.632;2023-04-07T11:30:45;39.35;;;28.83;;
36379;SDS011;22411;53.016;18.632;2023-04-07T11:33:23;35.80;;;27.33;;
36379;SDS011;22411;53.016;18.632;2023-04-07T11:35:53;71.22;;;55.67;;
36379;SDS011;22411;53.016;18.632;2023-04-07T11:38:34;93.53;;;63.55;;
36379;SDS011;22411;53.016;18.632;2023-04-07T11:41:09;128.07;;;79.72;;
36379;SDS011;22411;53.016;18.632;2023-04-07T11:43:38;80.90;;;64.60;;
36379;SDS011;22411;53.016;18.632;2023-04-07T11:46:13;69.88;;;58.78;;
36379;SDS011;22411;53.016;18.632;2023-04-07T11:48:41;49.28;;;38.25;;
36379;SDS011;22411;53.016;18.632;2023-04-07T11:51:16;87.40;;;65.45;;
36379;SDS011;22411;53.016;18.632;2023-04-07T11:53:43;369.02;;;210.05;;
36379;SDS011;22411;53.016;18.632;2023-04-07T11:56:11;381.98;;;221.77;;
36379;SDS011;22411;53.016;18.632;2023-04-07T11:58:46;219.82;;;103.53;;
36379;SDS011;22411;53.016;18.632;2023-04-07T12:01:16;102.55;;;62.25;;
36379;SDS011;22411;53.016;18.632;2023-04-07T12:04:02;114.35;;;62.83;;
36379;SDS011;22411;53.016;18.632;2023-04-07T12:06:29;142.18;;;96.97;;
36379;SDS011;22411;53.016;18.632;2023-04-07T12:09:00;85.75;;;60.30;;
36379;SDS011;22411;53.016;18.632;2023-04-07T12:11:27;53.78;;;36.80;;
36379;SDS011;22411;53.016;18.632;2023-04-07T12:13:53;67.60;;;39.40;;
36379;SDS011;22411;53.016;18.632;2023-04-07T12:16:19;53.20;;;34.38;;
36379;SDS011;22411;53.016;18.632;2023-04-07T12:18:46;58.50;;;38.47;;
36379;SDS011;22411;53.016;18.632;2023-04-07T12:21:12;95.93;;;67.00;;
36379;SDS011;22411;53.016;18.632;2023-04-07T12:23:38;69.18;;;48.28;;
36379;SDS011;22411;53.016;18.632;2023-04-07T12:26:04;64.80;;;44.22;;
36379;SDS011;22411;53.016;18.632;2023-04-07T12:28:31;33.00;;;24.10;;
36379;SDS011;22411;53.016;18.632;2023-04-07T12:30:57;23.85;;;18.05;;
36379;SDS011;22411;53.016;18.632;2023-04-07T12:33:23;28.23;;;18.77;;
36379;SDS011;22411;53.016;18.632;2023-04-07T12:35:49;34.55;;;22.83;;
36379;SDS011;22411;53.016;18.632;2023-04-07T12:38:16;36.78;;;22.15;;
36379;SDS011;22411;53.016;18.632;2023-04-07T12:40:42;33.03;;;22.73;;
36379;SDS011;22411;53.016;18.632;2023-04-07T12:43:08;34.22;;;22.05;;
36379;SDS011;22411;53.016;18.632;2023-04-07T12:45:34;34.45;;;23.80;;
36379;SDS011;22411;53.016;18.632;2023-04-07T12:48:00;34.72;;;22.23;;
36379;SDS011;22411;53.016;18.632;2023-04-07T12:50:27;31.52;;;21.80;;
36379;SDS011;22411;53.016;18.632;2023-04-07T12:52:54;44.85;;;27.55;;
36379;SDS011;22411;53.016;18.632;2023-04-07T12:55:23;43.83;;;27.00;;
36379;SDS011;22411;53.016;18.632;2023-04-07T12:57:49;57.63;;;32.10;;
36379;SDS011;22411;53.016;18.632;2023-04-07T13:00:16;34.80;;;22.63;;
36379;SDS011;22411;53.016;18.632;2023-04-07T13:02:42;31.45;;;21.23;;
36379;SDS011;22411;53.016;18.632;2023-04-07T13:05:08;27.70;;;17.80;;
36379;SDS011;22411;53.016;18.632;2023-04-07T13:07:34;31.60;;;20.63;;
36379;SDS011;22411;53.016;18.632;2023-04-07T13:10:01;28.00;;;19.08;;
36379;SDS011;22411;53.016;18.632;2023-04-07T13:12:28;25.90;;;18.77;;
36379;SDS011;22411;53.016;18.632;2023-04-07T13:14:55;28.98;;;20.38;;
36379;SDS011;22411;53.016;18.632;2023-04-07T13:17:21;28.08;;;19.80;;
36379;SDS011;22411;53.016;18.632;2023-04-07T13:19:47;29.52;;;21.10;;
36379;SDS011;22411;53.016;18.632;2023-04-07T13:22:15;30.67;;;21.25;;
36379;SDS011;22411;53.016;18.632;2023-04-07T13:24:42;34.35;;;23.80;;
36379;SDS011;22411;53.016;18.632;2023-04-07T13:27:08;33.72;;;21.23;;
36379;SDS011;22411;53.016;18.632;2023-04-07T13:29:36;28.95;;;20.35;;
36379;SDS011;22411;53.016;18.632;2023-04-07T13:32:03;32.60;;;20.15;;
36379;SDS011;22411;53.016;18.632;2023-04-07T13:34:33;31.35;;;20.23;;
36379;SDS011;22411;53.016;18.632;2023-04-07T13:37:01;26.73;;;19.55;;
36379;SDS011;22411;53.016;18.632;2023-04-07T13:39:29;27.27;;;19.60;;
36379;SDS011;22411;53.016;18.632;2023-04-07T13:41:56;28.38;;;20.10;;
36379;SDS011;22411;53.016;18.632;2023-04-07T13:44:27;31.50;;;21.75;;
36379;SDS011;22411;53.016;18.632;2023-04-07T13:46:54;31.52;;;22.15;;
36379;SDS011;22411;53.016;18.632;2023-04-07T13:49:21;32.00;;;23.65;;
36379;SDS011;22411;53.016;18.632;2023-04-07T13:51:47;31.77;;;21.35;;
36379;SDS011;22411;53.016;18.632;2023-04-07T13:54:15;29.08;;;20.75;;
36379;SDS011;22411;53.016;18.632;2023-04-07T13:56:42;28.50;;;21.05;;
36379;SDS011;22411;53.016;18.632;2023-04-07T13:59:09;31.08;;;20.02;;
36379;SDS011;22411;53.016;18.632;2023-04-07T14:01:38;31.25;;;20.58;;
36379;SDS011;22411;53.016;18.632;2023-04-07T14:06:37;31.15;;;20.83;;
36379;SDS011;22411;53.016;18.632;2023-04-07T14:09:07;32.30;;;20.38;;
36379;SDS011;22411;53.016;18.632;2023-04-07T14:11:40;24.80;;;17.90;;
36379;SDS011;22411;53.016;18.632;2023-04-07T14:14:07;27.70;;;19.63;;
36379;SDS011;22411;53.016;18.632;2023-04-07T14:16:36;27.77;;;20.55;;
36379;SDS011;22411;53.016;18.632;2023-04-07T14:19:03;22.52;;;18.80;;
36379;SDS011;22411;53.016;18.632;2023-04-07T14:21:31;28.55;;;19.50;;